Schedule Details


Flight Number: CTN424
Departure: Cilipi (LDDU) at 13:40
Arrival: Duesseldorf (EDDL) at 15:50
Route: AMUGO UL611 UVODI UL862 SABAD DCT NIPEL DCT BADIT T700 STAUB UL610 LOHRE Z850 ADEMI T854 DOMUX

Weather Information
LDDU 290300Z 24008KT 200V290 9999 FEW025 BKN035 13/10 Q1009 TEMPO 30015G25KT TSRA FEW025CB BKN035
EDDL 290250Z 24015KT 9999 SCT013 BKN016 04/02 Q1002 TEMPO BKN014
Schedule Frequency

Route Map